Time;durP1;ratioP1;P1;durP2;ratioP2;P2;SDS_P1;SDS_P2;PMS_P1;PMS_P2;Temp;Humidity;BMP_temperature;BMP_pressure;BME280_temperature;BME280_humidity;BME280_pressure;Samples;Min_cycle;Max_cycle;Signal;HPM_P1;HPM_P2
2024/01/08 00:01:17;;;;;;;6.85;2.90;;;-0.80;99.90;;;;;;5060370;28;20060;-54
2024/01/08 00:03:43;;;;;;;7.50;3.53;;;-0.90;99.90;;;;;;5061633;28;20079;-56
2024/01/08 00:06:09;;;;;;;9.55;3.00;;;-0.90;99.90;;;;;;5061913;28;20053;-54
2024/01/08 00:08:34;;;;;;;7.75;3.40;;;-0.90;99.90;;;;;;5061788;28;20412;-52
2024/01/08 00:11:00;;;;;;;6.90;2.70;;;-0.70;99.90;;;;;;5043596;28;20456;-54
2024/01/08 00:13:25;;;;;;;9.52;3.28;;;-0.70;99.90;;;;;;5061850;28;20417;-56
2024/01/08 00:15:51;;;;;;;7.55;3.15;;;-1.00;99.90;;;;;;5062090;28;20123;-55
2024/01/08 00:18:18;;;;;;;7.35;3.03;;;-1.00;99.90;;;;;;5061815;28;20036;-53
2024/01/08 00:20:43;;;;;;;7.97;3.05;;;-0.70;99.90;;;;;;5060641;28;20048;-54
2024/01/08 00:23:09;;;;;;;7.10;2.88;;;-1.00;99.90;;;;;;5060108;28;20510;-54
2024/01/08 00:25:36;;;;;;;7.55;3.15;;;-0.90;99.90;;;;;;5061365;28;20081;-54
2024/01/08 00:28:01;;;;;;;7.43;3.33;;;-0.70;99.90;;;;;;5059866;28;20124;-55
2024/01/08 00:30:27;;;;;;;6.93;2.83;;;-0.80;99.90;;;;;;5061253;28;20041;-56
2024/01/08 00:32:53;;;;;;;7.45;3.20;;;-0.90;99.90;;;;;;5060186;28;20049;-54
2024/01/08 00:35:18;;;;;;;8.32;3.30;;;-0.70;99.90;;;;;;5061246;28;20049;-54
2024/01/08 00:37:44;;;;;;;9.35;3.70;;;-1.00;99.90;;;;;;5059681;28;20131;-55
2024/01/08 00:40:11;;;;;;;8.48;3.28;;;-0.90;99.90;;;;;;5059962;28;20044;-54
2024/01/08 00:42:38;;;;;;;8.40;3.63;;;-0.80;99.90;;;;;;5059963;28;20041;-53
2024/01/08 00:45:05;;;;;;;10.73;3.67;;;-1.00;99.90;;;;;;5061009;28;20564;-54
2024/01/08 00:47:30;;;;;;;9.32;3.65;;;-0.90;99.90;;;;;;5059681;28;20048;-55
2024/01/08 00:49:56;;;;;;;8.30;3.25;;;-1.30;99.90;;;;;;5059719;28;20565;-55
2024/01/08 00:52:22;;;;;;;7.60;3.15;;;-1.40;99.90;;;;;;5059610;28;20524;-54
2024/01/08 00:54:48;;;;;;;10.13;3.88;;;-1.50;99.90;;;;;;5060005;28;20390;-55
2024/01/08 00:57:13;;;;;;;8.90;3.63;;;-1.60;99.90;;;;;;5059263;28;20123;-52
2024/01/08 00:59:39;;;;;;;8.60;3.40;;;-1.30;99.90;;;;;;5060742;28;20045;-55
2024/01/08 01:02:05;;;;;;;6.57;3.15;;;-1.40;99.90;;;;;;5079775;28;20037;-55
2024/01/08 01:04:30;;;;;;;8.98;3.13;;;-1.40;99.90;;;;;;5080356;28;20048;-54
2024/01/08 01:06:56;;;;;;;8.65;3.20;;;-1.40;99.90;;;;;;5080897;28;20702;-54
2024/01/08 01:09:22;;;;;;;7.65;3.38;;;-1.80;99.90;;;;;;5080932;28;20041;-54
2024/01/08 01:11:47;;;;;;;10.55;3.50;;;-1.40;99.90;;;;;;5080670;28;20032;-53
2024/01/08 01:14:13;;;;;;;8.77;3.50;;;-1.80;99.90;;;;;;5080891;28;20044;-53
2024/01/08 01:16:39;;;;;;;8.35;3.08;;;-1.80;99.90;;;;;;5080711;28;20049;-53
2024/01/08 01:19:05;;;;;;;8.90;3.35;;;-1.90;99.90;;;;;;5080158;28;20051;-53
2024/01/08 01:21:30;;;;;;;8.65;3.08;;;-1.70;99.90;;;;;;5080171;28;20040;-56
2024/01/08 01:23:57;;;;;;;12.52;3.65;;;-1.90;99.90;;;;;;5080583;28;20660;-55
2024/01/08 01:26:23;;;;;;;11.15;4.13;;;-2.00;99.90;;;;;;5080392;28;20033;-55
2024/01/08 01:28:49;;;;;;;9.88;3.78;;;-2.00;99.90;;;;;;5080642;28;20634;-55
2024/01/08 01:31:14;;;;;;;9.02;3.35;;;-2.00;99.90;;;;;;5078936;28;20067;-55
2024/01/08 01:33:40;;;;;;;7.40;3.30;;;-1.80;99.90;;;;;;5062233;28;20056;-54
2024/01/08 01:36:06;;;;;;;7.53;3.53;;;-2.00;99.90;;;;;;5079897;28;20044;-55
2024/01/08 01:38:32;;;;;;;8.50;3.30;;;-2.00;99.90;;;;;;5080106;28;20049;-55
2024/01/08 01:40:59;;;;;;;9.20;3.78;;;-1.80;99.90;;;;;;5080163;28;20068;-54
2024/01/08 01:43:27;;;;;;;8.02;3.30;;;-2.00;99.90;;;;;;5062178;28;20276;-56
2024/01/08 01:45:55;;;;;;;7.32;3.30;;;-1.70;99.90;;;;;;5080417;28;20145;-55
2024/01/08 01:48:21;;;;;;;10.18;4.22;;;-2.00;99.90;;;;;;5062083;28;20113;-55
2024/01/08 01:50:47;;;;;;;9.45;3.70;;;-1.60;99.90;;;;;;5079924;28;20040;-53
2024/01/08 01:53:13;;;;;;;7.55;3.80;;;-1.90;99.90;;;;;;5061667;28;20040;-55
2024/01/08 01:55:41;;;;;;;8.85;4.15;;;-1.50;99.90;;;;;;5078530;28;20078;-55
2024/01/08 01:58:08;;;;;;;8.90;3.33;;;-1.60;99.90;;;;;;5079234;28;20049;-56
2024/01/08 02:00:33;;;;;;;8.18;3.40;;;-1.80;99.90;;;;;;5079650;28;20057;-53
2024/01/08 02:03:00;;;;;;;9.63;3.47;;;-1.70;99.90;;;;;;5079577;28;20044;-55
2024/01/08 02:05:26;;;;;;;8.57;3.60;;;-1.50;99.90;;;;;;5079547;28;20051;-55
2024/01/08 02:07:53;;;;;;;9.82;3.75;;;-1.30;99.90;;;;;;5079809;28;20064;-54
2024/01/08 02:10:19;;;;;;;9.00;3.72;;;-1.40;99.90;;;;;;5061583;28;20060;-53
2024/01/08 02:12:45;;;;;;;8.43;3.70;;;-1.80;99.90;;;;;;5079453;28;20050;-55
2024/01/08 02:15:11;;;;;;;10.15;4.03;;;-1.30;99.90;;;;;;5079523;28;20044;-54
2024/01/08 02:17:38;;;;;;;10.02;4.30;;;-1.50;99.90;;;;;;5077890;28;20055;-52
2024/01/08 02:20:04;;;;;;;8.73;4.13;;;-1.20;99.90;;;;;;5079479;28;20044;-54
2024/01/08 02:22:30;;;;;;;9.00;4.25;;;-1.30;99.90;;;;;;5079199;28;20052;-55
2024/01/08 02:24:56;;;;;;;10.23;4.38;;;-1.50;99.90;;;;;;5079555;28;20153;-56
2024/01/08 02:27:21;;;;;;;9.13;4.10;;;-1.40;99.90;;;;;;5079023;28;20053;-56
2024/01/08 02:29:47;;;;;;;8.63;4.25;;;-1.10;99.90;;;;;;5079049;28;20036;-56
2024/01/08 02:32:13;;;;;;;8.95;3.78;;;-1.50;99.90;;;;;;5078577;28;20045;-53
2024/01/08 02:34:39;;;;;;;8.52;4.40;;;-1.50;99.90;;;;;;5078768;28;20412;-52
2024/01/08 02:37:05;;;;;;;9.40;4.07;;;-1.60;99.90;;;;;;5079139;28;20095;-54
2024/01/08 02:39:31;;;;;;;9.90;4.63;;;-1.20;99.90;;;;;;5061043;28;20108;-55
2024/01/08 02:41:56;;;;;;;9.65;4.50;;;-1.00;99.90;;;;;;5044785;28;20090;-54
2024/01/08 02:44:22;;;;;;;10.23;4.45;;;-1.40;99.90;;;;;;5078924;28;20111;-56
2024/01/08 02:46:48;;;;;;;8.80;4.18;;;-1.40;99.90;;;;;;5078561;28;20051;-55
2024/01/08 02:49:13;;;;;;;9.48;4.43;;;-1.00;99.90;;;;;;5078729;28;20037;-56
2024/01/08 02:51:39;;;;;;;9.63;4.45;;;-1.00;99.90;;;;;;5078713;28;20037;-54
2024/01/08 02:54:05;;;;;;;9.85;4.40;;;-1.30;99.90;;;;;;5078804;28;20048;-55
2024/01/08 02:56:30;;;;;;;9.98;4.20;;;-1.30;99.90;;;;;;5077708;28;20087;-54
2024/01/08 02:58:56;;;;;;;10.70;4.35;;;-1.10;99.90;;;;;;5077615;28;20041;-55
2024/01/08 03:01:21;;;;;;;8.85;3.78;;;-0.90;99.90;;;;;;5078575;28;20048;-55
2024/01/08 03:03:47;;;;;;;8.20;4.07;;;-1.30;99.90;;;;;;5078376;28;20072;-55
2024/01/08 03:06:13;;;;;;;9.20;4.25;;;-1.20;99.90;;;;;;5043900;28;20096;-55
2024/01/08 03:08:38;;;;;;;9.50;4.75;;;-1.30;99.90;;;;;;5078446;28;20076;-55
2024/01/08 03:11:04;;;;;;;9.50;4.18;;;-0.80;99.90;;;;;;5077867;28;20036;-53
2024/01/08 03:13:30;;;;;;;10.00;4.70;;;-0.70;99.90;;;;;;5078791;28;20044;-56
2024/01/08 03:15:55;;;;;;;9.20;4.30;;;-0.70;99.90;;;;;;5078627;28;20055;-55
2024/01/08 03:18:21;;;;;;;8.45;4.30;;;-0.90;99.90;;;;;;5078834;28;20142;-54
2024/01/08 03:20:47;;;;;;;10.50;4.82;;;-1.10;99.90;;;;;;5078689;28;20044;-55
2024/01/08 03:23:12;;;;;;;10.05;4.07;;;-0.60;99.90;;;;;;5060043;28;20128;-55
2024/01/08 03:25:38;;;;;;;9.35;4.47;;;-0.60;99.90;;;;;;5076993;28;20040;-54
2024/01/08 03:28:04;;;;;;;10.23;4.97;;;-1.10;99.90;;;;;;5076959;28;20076;-55
2024/01/08 03:30:29;;;;;;;12.55;4.18;;;-0.80;99.90;;;;;;5060560;28;20037;-55
2024/01/08 03:32:55;;;;;;;11.68;4.43;;;-1.10;99.90;;;;;;5078777;28;20044;-53
2024/01/08 03:35:21;;;;;;;10.23;4.10;;;-1.10;99.90;;;;;;5078209;28;20040;-55
2024/01/08 03:37:46;;;;;;;9.70;4.63;;;-0.80;99.90;;;;;;5078367;28;20072;-54
2024/01/08 03:40:12;;;;;;;10.00;4.22;;;-1.10;99.90;;;;;;5060143;28;20389;-56
2024/01/08 03:42:38;;;;;;;8.27;3.72;;;-0.60;99.90;;;;;;5078277;28;20465;-54
2024/01/08 03:45:04;;;;;;;10.15;4.28;;;-1.10;99.90;;;;;;5078152;28;20051;-54
2024/01/08 03:47:29;;;;;;;10.48;4.18;;;-1.10;99.90;;;;;;5078200;28;20037;-54
2024/01/08 03:49:55;;;;;;;11.20;4.28;;;-0.80;99.90;;;;;;5078507;28;20036;-55
2024/01/08 03:52:22;;;;;;;10.38;3.85;;;-0.90;99.90;;;;;;5076803;28;20071;-51
2024/01/08 03:54:49;;;;;;;11.52;4.43;;;-0.60;99.90;;;;;;5078674;28;20048;-53
2024/01/08 03:57:14;;;;;;;8.23;3.65;;;-0.90;99.90;;;;;;5078094;28;20135;-54
2024/01/08 03:59:42;;;;;;;9.95;4.30;;;-0.60;99.90;;;;;;5077647;28;20083;-55
2024/01/08 04:02:08;;;;;;;8.32;3.83;;;-0.80;99.90;;;;;;5077718;28;20123;-55
2024/01/08 04:04:33;;;;;;;9.63;4.03;;;-0.70;99.90;;;;;;5077578;28;20070;-54
2024/01/08 04:06:59;;;;;;;8.60;4.13;;;-0.60;99.90;;;;;;5078098;28;20056;-55
2024/01/08 04:09:25;;;;;;;8.70;3.75;;;-0.80;99.90;;;;;;5078297;28;20040;-55
2024/01/08 04:11:51;;;;;;;9.55;3.75;;;-1.20;99.90;;;;;;5078283;28;20041;-54
2024/01/08 04:14:17;;;;;;;6.97;3.45;;;-0.70;99.90;;;;;;5078089;28;20033;-54
2024/01/08 04:16:43;;;;;;;9.02;3.60;;;-0.80;99.90;;;;;;5077965;28;20041;-55
2024/01/08 04:19:08;;;;;;;11.82;4.13;;;-0.80;99.90;;;;;;5077724;28;20048;-56
2024/01/08 04:21:34;;;;;;;8.30;3.90;;;-0.70;99.90;;;;;;5079828;28;20051;-53
2024/01/08 04:24:00;;;;;;;10.15;3.70;;;-1.20;99.90;;;;;;5081739;28;20307;-55
2024/01/08 04:26:26;;;;;;;8.63;3.92;;;-0.60;99.90;;;;;;5081536;28;20096;-55
2024/01/08 04:28:52;;;;;;;10.90;4.40;;;-1.00;99.90;;;;;;5063748;28;20097;-55
2024/01/08 04:31:21;;;;;;;9.98;3.38;;;-0.90;99.90;;;;;;5063704;28;20492;-55
2024/01/08 04:33:51;;;;;;;9.23;3.22;;;-1.30;99.90;;;;;;5081128;28;20624;-53
2024/01/08 04:36:17;;;;;;;9.80;3.85;;;-0.80;99.90;;;;;;5063912;28;20083;-54
2024/01/08 04:38:46;;;;;;;7.60;3.00;;;-0.80;99.90;;;;;;5063199;28;20133;-54
2024/01/08 04:41:19;;;;;;;9.23;3.40;;;-1.00;99.90;;;;;;5081133;28;20696;-54
2024/01/08 04:43:45;;;;;;;13.35;3.45;;;-0.90;99.90;;;;;;5081268;28;20047;-54
2024/01/08 04:46:10;;;;;;;10.02;3.13;;;-1.20;99.90;;;;;;5063201;28;20041;-53
2024/01/08 04:48:36;;;;;;;6.85;2.70;;;-1.00;99.90;;;;;;5081357;28;20093;-55
2024/01/08 04:51:02;;;;;;;8.00;2.95;;;-1.30;99.90;;;;;;5080873;28;20523;-55
2024/01/08 04:53:28;;;;;;;8.40;3.15;;;-1.00;99.90;;;;;;5080935;28;20052;-54
2024/01/08 04:55:53;;;;;;;7.57;2.70;;;-1.30;99.90;;;;;;5080736;28;20048;-53
2024/01/08 04:58:19;;;;;;;7.80;3.00;;;-1.30;99.90;;;;;;5080821;28;20043;-53
2024/01/08 05:00:45;;;;;;;7.50;2.92;;;-1.30;99.90;;;;;;5063017;28;20060;-53
2024/01/08 05:03:12;;;;;;;7.43;3.20;;;-1.00;99.90;;;;;;5080958;28;20048;-53
2024/01/08 05:05:38;;;;;;;7.97;2.97;;;-1.10;99.90;;;;;;5080836;28;20055;-54
2024/01/08 05:08:04;;;;;;;9.98;3.38;;;-1.30;99.90;;;;;;5080427;28;20037;-55
2024/01/08 05:10:29;;;;;;;6.97;2.80;;;-1.00;99.90;;;;;;5080281;28;20044;-53
2024/01/08 05:12:55;;;;;;;8.55;3.10;;;-1.00;99.90;;;;;;5080679;28;20036;-52
2024/01/08 05:15:21;;;;;;;7.50;2.85;;;-1.30;99.90;;;;;;5080830;28;20044;-55
2024/01/08 05:17:46;;;;;;;7.05;2.88;;;-1.40;99.90;;;;;;5080757;28;20115;-55
2024/01/08 05:20:12;;;;;;;7.78;3.40;;;-1.50;99.90;;;;;;5062815;28;20078;-55
2024/01/08 05:22:38;;;;;;;8.35;2.97;;;-1.30;99.90;;;;;;5062735;28;20075;-53
2024/01/08 05:25:04;;;;;;;6.63;2.83;;;-1.60;99.90;;;;;;5080420;28;20527;-56
2024/01/08 05:27:29;;;;;;;7.68;3.00;;;-1.50;99.90;;;;;;5080119;28;20502;-56
2024/01/08 05:29:55;;;;;;;7.13;2.92;;;-1.40;99.90;;;;;;5080249;28;20080;-55
2024/01/08 05:32:20;;;;;;;10.50;3.10;;;-1.70;99.90;;;;;;5061440;28;20100;-55
2024/01/08 05:34:47;;;;;;;6.80;3.25;;;-1.50;99.90;;;;;;5080485;28;20032;-56
2024/01/08 05:37:12;;;;;;;7.95;3.92;;;-1.70;99.90;;;;;;5080530;28;20086;-54
2024/01/08 05:39:38;;;;;;;8.43;3.25;;;-1.70;99.90;;;;;;5080236;28;20384;-54
2024/01/08 05:42:04;;;;;;;10.20;3.05;;;-1.70;99.90;;;;;;5080497;28;20040;-54
2024/01/08 05:44:30;;;;;;;8.07;3.40;;;-1.70;99.90;;;;;;5079984;28;20119;-53
2024/01/08 05:46:55;;;;;;;9.80;4.07;;;-1.90;99.90;;;;;;5062080;28;20468;-56
2024/01/08 05:49:21;;;;;;;9.27;3.25;;;-2.00;99.90;;;;;;5079969;28;20068;-54
2024/01/08 05:51:47;;;;;;;8.65;3.83;;;-1.80;99.90;;;;;;5061892;28;20108;-55
2024/01/08 05:54:12;;;;;;;9.48;3.85;;;-2.00;99.90;;;;;;5079858;28;20033;-52
2024/01/08 05:56:38;;;;;;;10.07;5.28;;;-1.80;99.90;;;;;;5062006;28;20037;-53
2024/01/08 05:59:04;;;;;;;8.27;3.30;;;-1.60;99.90;;;;;;5080003;28;20048;-56
2024/01/08 06:01:29;;;;;;;8.25;3.47;;;-1.60;99.90;;;;;;5061810;28;20056;-54
2024/01/08 06:03:55;;;;;;;7.15;3.13;;;-2.00;99.90;;;;;;5061439;28;20047;-56
2024/01/08 06:06:21;;;;;;;9.20;3.95;;;-1.80;99.90;;;;;;5079386;28;20071;-55
2024/01/08 06:08:46;;;;;;;9.23;4.53;;;-1.60;99.90;;;;;;5077777;28;20044;-56
2024/01/08 06:11:13;;;;;;;8.25;3.42;;;-1.60;99.90;;;;;;5079502;28;20080;-55
2024/01/08 06:13:40;;;;;;;10.55;3.70;;;-2.10;99.90;;;;;;5079861;28;20048;-54
2024/01/08 06:16:05;;;;;;;9.70;4.20;;;-2.10;99.90;;;;;;5061329;28;20055;-51
2024/01/08 06:18:31;;;;;;;20.50;3.85;;;-1.70;99.90;;;;;;5077955;28;20045;-52
2024/01/08 06:20:58;;;;;;;9.60;3.42;;;-2.20;99.90;;;;;;5079275;28;20040;-53
2024/01/08 06:23:23;;;;;;;10.27;3.72;;;-1.80;99.90;;;;;;5079045;28;20048;-55
2024/01/08 06:25:49;;;;;;;7.47;3.40;;;-2.00;99.90;;;;;;5074569;28;20041;-55
2024/01/08 06:28:15;;;;;;;10.00;3.80;;;-2.10;99.90;;;;;;5073942;28;20045;-53
2024/01/08 06:30:43;;;;;;;8.40;3.70;;;-2.30;99.90;;;;;;5075182;28;20508;-54
2024/01/08 06:33:08;;;;;;;8.02;3.45;;;-1.80;99.90;;;;;;5075464;28;20044;-53
2024/01/08 06:35:34;;;;;;;7.72;3.90;;;-2.20;99.90;;;;;;5075047;28;20467;-55
2024/01/08 06:38:00;;;;;;;8.07;3.55;;;-2.20;99.90;;;;;;5056503;28;20067;-53
2024/01/08 06:40:27;;;;;;;9.75;3.78;;;-1.90;99.90;;;;;;5074955;28;20028;-54
2024/01/08 06:42:52;;;;;;;10.00;3.33;;;-1.90;99.90;;;;;;5074998;28;20567;-53
2024/01/08 06:45:18;;;;;;;8.70;2.78;;;-1.90;99.90;;;;;;5074352;28;20305;-53
2024/01/08 06:47:44;;;;;;;7.90;3.38;;;-1.90;99.90;;;;;;5075269;28;20044;-55
2024/01/08 06:50:10;;;;;;;6.93;3.17;;;-2.00;99.90;;;;;;5074901;28;20106;-54
2024/01/08 06:52:36;;;;;;;8.93;3.35;;;-2.30;99.90;;;;;;5056936;28;20032;-54
2024/01/08 06:55:02;;;;;;;10.45;3.85;;;-1.80;99.90;;;;;;5074841;28;20052;-55
2024/01/08 06:57:27;;;;;;;8.15;3.20;;;-2.00;99.90;;;;;;5074460;28;20076;-53
2024/01/08 06:59:53;;;;;;;8.45;3.72;;;-1.90;99.90;;;;;;5073983;28;20488;-55
2024/01/08 07:02:19;;;;;;;10.25;3.88;;;-2.30;99.90;;;;;;5055836;28;20122;-53
2024/01/08 07:04:44;;;;;;;8.13;3.70;;;-2.20;99.90;;;;;;5073596;28;20036;-52
2024/01/08 07:07:10;;;;;;;10.07;3.40;;;-2.00;99.90;;;;;;5074210;28;20047;-53
2024/01/08 07:09:36;;;;;;;9.95;4.13;;;-1.70;99.90;;;;;;5075053;28;20038;-53
2024/01/08 07:12:02;;;;;;;9.77;3.35;;;-2.10;99.90;;;;;;5073138;28;20059;-55
2024/01/08 07:14:28;;;;;;;10.20;3.75;;;-1.90;99.90;;;;;;5074614;28;20044;-56
2024/01/08 07:16:54;;;;;;;10.00;3.30;;;-2.10;99.90;;;;;;5074425;28;20096;-53
2024/01/08 07:19:19;;;;;;;9.80;2.80;;;-1.60;99.90;;;;;;5074501;28;20123;-55
2024/01/08 07:21:45;;;;;;;6.88;2.58;;;-1.70;99.90;;;;;;5073288;28;20512;-55
2024/01/08 07:24:12;;;;;;;8.80;2.97;;;-1.50;99.90;;;;;;5074608;28;20048;-54
2024/01/08 07:26:37;;;;;;;8.90;3.05;;;-1.50;99.90;;;;;;5056712;28;20053;-54
2024/01/08 07:29:03;;;;;;;7.38;2.47;;;-1.90;99.90;;;;;;5074768;28;20032;-53
2024/01/08 07:31:32;;;;;;;7.53;3.15;;;-1.80;99.90;;;;;;5055882;28;20043;-51
2024/01/08 07:33:58;;;;;;;7.60;3.08;;;-1.50;99.90;;;;;;5073735;28;20064;-54
2024/01/08 07:36:25;;;;;;;7.57;2.50;;;-1.80;99.90;;;;;;5072453;28;20044;-54
2024/01/08 07:38:51;;;;;;;9.18;3.00;;;-1.70;99.90;;;;;;5074516;28;20049;-52
2024/01/08 07:41:17;;;;;;;6.32;2.25;;;-1.30;99.90;;;;;;5056917;28;20055;-53
2024/01/08 07:43:43;;;;;;;7.38;2.90;;;-1.10;99.90;;;;;;5056659;28;20067;-56
2024/01/08 07:46:09;;;;;;;7.88;2.58;;;-1.40;99.90;;;;;;5073201;28;20045;-54
2024/01/08 07:48:34;;;;;;;9.85;3.17;;;-1.00;99.90;;;;;;5074080;28;20041;-52
2024/01/08 07:51:01;;;;;;;12.18;2.42;;;-1.50;99.90;;;;;;5074030;28;20037;-50
2024/01/08 07:53:26;;;;;;;10.77;2.80;;;-1.00;99.90;;;;;;5056055;28;20041;-55
2024/01/08 07:55:52;;;;;;;11.15;2.70;;;-0.90;99.90;;;;;;5057326;28;20040;-54
2024/01/08 07:58:19;;;;;;;9.43;2.60;;;-1.00;99.90;;;;;;5078354;28;20101;-56
2024/01/08 08:00:45;;;;;;;8.73;2.85;;;-1.10;99.90;;;;;;5075549;28;20044;-55
2024/01/08 08:03:11;;;;;;;8.77;2.45;;;-0.80;99.90;;;;;;5078079;28;20048;-54
2024/01/08 08:05:38;;;;;;;7.20;2.60;;;-0.90;99.90;;;;;;5058876;28;20424;-56
2024/01/08 08:08:04;;;;;;;9.93;2.70;;;-1.50;99.90;;;;;;5077401;28;20104;-54
2024/01/08 08:10:30;;;;;;;7.93;2.47;;;-1.30;99.90;;;;;;5059450;28;20083;-54
2024/01/08 08:12:56;;;;;;;8.07;2.85;;;-1.10;99.90;;;;;;5077397;28;20053;-55
2024/01/08 08:15:21;;;;;;;7.32;2.42;;;-1.40;99.90;;;;;;5077813;28;20402;-53
2024/01/08 08:17:47;;;;;;;7.82;2.88;;;-1.10;99.90;;;;;;5076598;28;20086;-53
2024/01/08 08:20:13;;;;;;;7.07;2.72;;;-1.20;99.90;;;;;;5077794;28;20052;-57
2024/01/08 08:22:38;;;;;;;10.50;2.38;;;-1.20;99.90;;;;;;5077752;28;20040;-53
2024/01/08 08:25:04;;;;;;;8.45;2.08;;;-1.00;99.90;;;;;;5077292;28;20044;-53
2024/01/08 08:27:32;;;;;;;7.00;2.50;;;-0.70;99.90;;;;;;5059435;28;20044;-51
2024/01/08 08:29:58;;;;;;;7.72;2.42;;;-1.00;99.90;;;;;;5059688;28;20555;-55
2024/01/08 08:32:23;;;;;;;8.60;2.63;;;-0.90;99.90;;;;;;5059600;28;20090;-54
2024/01/08 08:34:49;;;;;;;5.85;2.10;;;-0.90;99.90;;;;;;5042808;28;20044;-54
2024/01/08 08:37:15;;;;;;;7.97;2.78;;;-0.70;99.90;;;;;;5059400;28;20057;-54
2024/01/08 08:39:40;;;;;;;7.65;2.30;;;-0.80;99.90;;;;;;5077486;28;20047;-55
2024/01/08 08:42:07;;;;;;;9.57;2.83;;;-1.20;99.90;;;;;;5077391;28;20040;-54
2024/01/08 08:44:33;;;;;;;11.63;2.45;;;-0.80;99.90;;;;;;5077421;28;20503;-53
2024/01/08 08:47:00;;;;;;;8.90;2.47;;;-0.60;99.90;;;;;;5075649;28;20040;-55
2024/01/08 08:49:26;;;;;;;8.65;2.90;;;-0.60;99.90;;;;;;5075860;28;20056;-54
2024/01/08 08:51:52;;;;;;;7.85;2.42;;;-0.70;99.90;;;;;;5076644;28;20087;-54
2024/01/08 08:54:18;;;;;;;7.60;2.63;;;-0.50;99.90;;;;;;5076072;28;20047;-54
2024/01/08 08:56:43;;;;;;;6.90;2.17;;;-0.40;99.90;;;;;;5077261;28;20041;-50
2024/01/08 08:59:09;;;;;;;6.57;2.35;;;-0.80;99.90;;;;;;5076876;28;20131;-54
2024/01/08 09:01:35;;;;;;;6.82;2.10;;;-1.00;99.90;;;;;;5076144;28;20060;-54
2024/01/08 09:04:01;;;;;;;6.65;2.28;;;-0.90;99.90;;;;;;5076544;28;20056;-55
2024/01/08 09:06:30;;;;;;;7.10;2.50;;;-0.80;99.90;;;;;;5076631;28;20059;-52
2024/01/08 09:08:56;;;;;;;7.82;1.92;;;-0.50;99.90;;;;;;5076230;28;20605;-56
2024/01/08 09:11:21;;;;;;;5.60;2.10;;;-0.30;99.90;;;;;;5077099;28;20157;-54
2024/01/08 09:13:47;;;;;;;5.72;2.15;;;-0.50;99.90;;;;;;5076387;28;20038;-53
2024/01/08 09:16:14;;;;;;;5.28;1.77;;;-0.50;99.90;;;;;;5076850;28;20047;-56
2024/01/08 09:18:40;;;;;;;6.05;2.03;;;-0.40;99.90;;;;;;5042012;28;20068;-55
2024/01/08 09:21:10;;;;;;;8.55;2.35;;;-0.50;99.90;;;;;;5076961;28;20028;-54
2024/01/08 09:23:36;;;;;;;6.85;2.30;;;-0.30;99.90;;;;;;5076525;28;20045;-53
2024/01/08 09:26:04;;;;;;;6.30;2.10;;;-0.20;99.90;;;;;;5076110;28;20327;-55
2024/01/08 09:28:30;;;;;;;9.20;2.25;;;-0.60;99.90;;;;;;5058242;28;20055;-54
2024/01/08 09:30:55;;;;;;;7.30;2.20;;;-0.20;99.90;;;;;;5075838;28;20032;-53
2024/01/08 09:33:21;;;;;;;8.70;2.28;;;-0.60;99.90;;;;;;5076486;28;20143;-55
2024/01/08 09:35:49;;;;;;;8.50;2.05;;;-0.20;99.90;;;;;;5075418;28;20040;-54
2024/01/08 09:38:15;;;;;;;5.05;1.88;;;-0.20;99.90;;;;;;5075730;28;20041;-54
2024/01/08 09:40:43;;;;;;;7.10;2.15;;;-0.20;99.90;;;;;;5076383;28;20092;-53
2024/01/08 09:43:12;;;;;;;6.85;2.33;;;-0.60;99.90;;;;;;5076057;28;20075;-53
2024/01/08 09:46:03;;;;;;;5.80;1.90;;;-0.40;99.90;;;;;;5076048;28;20052;-52
2024/01/08 09:48:30;;;;;;;7.47;2.13;;;-0.60;99.90;;;;;;5063962;28;20056;-55
2024/01/08 09:50:56;;;;;;;6.88;1.98;;;-0.60;99.90;;;;;;5075391;28;20048;-55
2024/01/08 09:53:22;;;;;;;6.40;2.20;;;-0.20;99.90;;;;;;5063509;28;20059;-55
2024/01/08 09:55:50;;;;;;;6.28;1.92;;;-0.50;99.90;;;;;;5056918;28;20037;-54
2024/01/08 09:58:17;;;;;;;6.30;2.20;;;-0.20;99.90;;;;;;5074593;28;20397;-54
2024/01/08 10:00:43;;;;;;;7.90;2.50;;;-0.30;99.90;;;;;;5075143;28;20052;-54
2024/01/08 10:03:09;;;;;;;9.45;2.63;;;-0.50;99.90;;;;;;5075729;28;20061;-53
2024/01/08 10:05:38;;;;;;;6.03;1.92;;;-0.40;99.90;;;;;;5075306;28;20095;-51
2024/01/08 10:08:04;;;;;;;4.75;1.77;;;-0.40;99.90;;;;;;5073630;28;20055;-55
2024/01/08 10:10:30;;;;;;;6.50;2.00;;;-0.40;99.90;;;;;;5075166;28;20310;-50
2024/01/08 10:12:56;;;;;;;6.15;2.22;;;-0.40;99.90;;;;;;5074196;28;20055;-55
2024/01/08 10:15:22;;;;;;;6.20;2.53;;;-0.20;99.90;;;;;;5073830;28;20076;-53
2024/01/08 10:17:48;;;;;;;5.13;1.88;;;-0.20;99.90;;;;;;5057210;28;20078;-53
2024/01/08 10:20:16;;;;;;;7.68;2.08;;;-0.40;99.90;;;;;;5075214;28;20044;-55
2024/01/08 10:22:44;;;;;;;7.45;2.30;;;-0.30;99.90;;;;;;5075333;28;20573;-55
2024/01/08 10:25:11;;;;;;;10.27;2.45;;;-0.40;99.90;;;;;;5056161;28;20044;-54
2024/01/08 10:27:37;;;;;;;7.15;2.15;;;-0.40;99.90;;;;;;5074878;28;20087;-55
2024/01/08 10:30:04;;;;;;;8.07;2.30;;;-0.10;99.90;;;;;;5075400;28;20053;-53
2024/01/08 10:32:29;;;;;;;7.00;2.45;;;0.10;99.90;;;;;;5059241;28;20623;-54
2024/01/08 10:34:56;;;;;;;6.32;2.70;;;0.10;99.90;;;;;;5078590;28;20318;-55
2024/01/08 10:37:22;;;;;;;5.70;2.13;;;-0.30;99.90;;;;;;5060698;28;20048;-54
2024/01/08 10:39:48;;;;;;;7.78;2.55;;;-0.20;99.90;;;;;;5078753;28;20083;-55
2024/01/08 10:42:14;;;;;;;5.72;2.20;;;-0.10;99.90;;;;;;5078747;28;20060;-55
2024/01/08 10:44:40;;;;;;;6.40;2.10;;;-0.30;99.90;;;;;;5078783;28;20418;-56
2024/01/08 10:47:09;;;;;;;9.00;2.15;;;-0.30;99.90;;;;;;5078665;28;20044;-54
2024/01/08 10:49:36;;;;;;;6.05;2.33;;;-0.10;99.90;;;;;;5078897;28;20024;-53
2024/01/08 10:52:38;;;;;;;7.68;2.20;;;-0.30;99.90;;;;;;5078908;28;20048;-54
2024/01/08 10:55:06;;;;;;;7.93;2.80;;;-0.40;99.90;;;;;;5028970;28;20182;-54
2024/01/08 10:57:43;;;;;;;7.18;2.40;;;-0.30;99.90;;;;;;5059791;28;20048;-54
2024/01/08 11:00:10;;;;;;;5.22;1.95;;;-0.40;99.90;;;;;;5060316;28;20104;-54
2024/01/08 11:02:37;;;;;;;7.28;1.98;;;-0.50;99.90;;;;;;5078361;28;20412;-56
2024/01/08 11:05:06;;;;;;;5.75;2.22;;;-0.40;99.90;;;;;;5078499;28;20096;-54
2024/01/08 11:07:41;;;;;;;8.35;2.33;;;-0.50;99.90;;;;;;5077622;28;20037;-53
2024/01/08 11:10:09;;;;;;;7.60;2.25;;;-0.60;99.90;;;;;;5077871;28;20036;-55
2024/01/08 11:12:51;;;;;;;5.85;2.25;;;-0.50;99.90;;;;;;5077667;28;20484;-54
2024/01/08 11:15:17;;;;;;;5.78;2.00;;;-0.40;99.90;;;;;;5075279;28;20059;-53
2024/01/08 11:17:53;;;;;;;6.65;2.20;;;-0.50;99.90;;;;;;5077976;28;20127;-53
2024/01/08 11:20:45;;;;;;;6.80;2.50;;;-0.30;99.90;;;;;;5076631;28;20088;-55
2024/01/08 11:23:31;;;;;;;6.45;2.40;;;-0.40;99.90;;;;;;5077525;28;20037;-55
2024/01/08 11:25:58;;;;;;;6.88;2.40;;;-0.30;99.90;;;;;;5075027;28;20037;-54
2024/01/08 11:28:23;;;;;;;6.55;2.10;;;-0.30;99.90;;;;;;5077699;28;20041;-54
2024/01/08 11:31:12;;;;;;;6.90;2.17;;;-0.40;99.90;;;;;;5078571;28;20107;-53
2024/01/08 11:33:46;;;;;;;5.50;2.08;;;-0.30;99.90;;;;;;5081633;28;20105;-54
2024/01/08 11:36:16;;;;;;;6.22;1.90;;;-0.10;99.90;;;;;;5080217;28;20036;-52
2024/01/08 11:39:13;;;;;;;7.75;2.28;;;-0.10;99.90;;;;;;5081524;28;20520;-54
2024/01/08 11:41:39;;;;;;;7.22;2.55;;;-0.10;99.90;;;;;;5081669;28;20044;-55
2024/01/08 11:44:05;;;;;;;7.95;2.10;;;-0.10;99.90;;;;;;5082292;28;20044;-54
2024/01/08 11:46:31;;;;;;;5.93;2.10;;;0.00;99.90;;;;;;5081856;28;20048;-55
2024/01/08 11:48:57;;;;;;;8.13;2.30;;;-0.20;99.90;;;;;;5081006;28;20063;-56
2024/01/08 11:51:23;;;;;;;5.03;1.90;;;0.00;99.90;;;;;;5081643;28;20040;-55
2024/01/08 11:53:51;;;;;;;8.35;2.22;;;-0.20;99.90;;;;;;5063899;28;20052;-57
2024/01/08 11:56:17;;;;;;;7.13;2.30;;;-0.10;99.90;;;;;;5063923;28;20555;-50
2024/01/08 11:58:49;;;;;;;9.73;2.53;;;-0.20;99.90;;;;;;5081980;28;20044;-53
2024/01/08 12:01:16;;;;;;;5.63;2.13;;;0.20;99.90;;;;;;5082009;28;20139;-54
2024/01/08 12:03:42;;;;;;;7.00;2.05;;;0.10;99.90;;;;;;5081336;28;20060;-57
2024/01/08 12:06:08;;;;;;;7.93;2.85;;;0.00;99.90;;;;;;5081170;28;20041;-54
2024/01/08 12:08:34;;;;;;;5.97;1.90;;;0.00;99.90;;;;;;5081328;28;20104;-51
2024/01/08 12:11:01;;;;;;;6.35;2.25;;;0.10;99.90;;;;;;5081256;28;20041;-52
2024/01/08 12:13:27;;;;;;;5.97;1.95;;;0.10;99.90;;;;;;5079656;28;20123;-56
2024/01/08 12:15:52;;;;;;;7.40;2.42;;;0.00;99.90;;;;;;5080901;28;20093;-52
2024/01/08 12:18:18;;;;;;;6.82;2.10;;;0.00;99.90;;;;;;5080905;28;20049;-51
2024/01/08 12:20:44;;;;;;;6.55;2.05;;;-0.10;99.90;;;;;;5081235;28;20036;-54
2024/01/08 12:23:10;;;;;;;5.50;1.80;;;-0.10;99.90;;;;;;5062944;28;20037;-54
2024/01/08 12:25:36;;;;;;;5.85;2.30;;;0.00;99.90;;;;;;5079894;28;20037;-52
2024/01/08 12:28:01;;;;;;;5.70;2.20;;;0.10;99.90;;;;;;5063150;28;20047;-56
2024/01/08 12:30:27;;;;;;;6.18;2.20;;;0.00;99.90;;;;;;5080585;28;20051;-49
2024/01/08 12:32:53;;;;;;;7.97;2.50;;;0.00;99.90;;;;;;5080923;28;20040;-54
2024/01/08 12:35:19;;;;;;;5.88;2.20;;;0.10;99.90;;;;;;5062471;28;20068;-55
2024/01/08 12:37:45;;;;;;;11.82;2.50;;;0.00;99.90;;;;;;5080768;28;20044;-54
2024/01/08 12:40:11;;;;;;;6.18;2.63;;;0.10;99.90;;;;;;5081409;28;20049;-55
2024/01/08 12:42:37;;;;;;;6.30;2.28;;;0.00;99.90;;;;;;5080728;28;20036;-54